This is the latest recevied weather packets stored in our database for station/object KG7KID-3. If no packets are shown the sender has not sent any weather packets the latest 10 day(s).
| Time | Temp. | Humidity | Pressure | Rain* | Wind** | Luminosity | Snow |
|---|---|---|---|---|---|---|---|
| 1788135109 | 35.56° C | 30% | 884.9 hPa | 0 mm | - | - | - |
| 1788134808 | 35.56° C | 30% | 884.9 hPa | 0 mm | - | - | - |
| 1788134208 | 36.11° C | 30% | 885 hPa | 0 mm | - | - | - |
| 1788133908 | 36.11° C | 30% | 885.1 hPa | 0 mm | - | - | - |
| 1788133608 | 36.11° C | 29% | 885 hPa | 0 mm | - | - | - |
| 1788132708 | 36.11° C | 31% | 885.2 hPa | 0 mm | - | - | - |
| 1788132408 | 36.11° C | 31% | 885.3 hPa | 0 mm | - | - | - |
| 1788132108 | 36.67° C | 30% | 885.3 hPa | 0 mm | - | - | - |
| 1788131508 | 36.67° C | 30% | 885.5 hPa | 0 mm | - | - | - |
| 1788131208 | 36.67° C | 30% | 885.5 hPa | 0 mm | - | - | - |
| 1788130608 | 37.22° C | 30% | 885.6 hPa | 0 mm | - | - | - |
| 1788130308 | 37.22° C | 30% | 885.6 hPa | 0 mm | - | - | - |
| 1788130008 | 36.67° C | 30% | 885.7 hPa | 0 mm | - | - | - |
| 1788129739 | 36.67° C | 30% | 885.8 hPa | 0 mm | - | - | - |
| 1788129708 | 36.67° C | 30% | 885.8 hPa | 0 mm | - | - | - |
| 1788129408 | 36.67° C | 31% | 885.8 hPa | 0 mm | - | - | - |
| 1788129108 | 36.11° C | 32% | 885.9 hPa | 0 mm | - | - | - |
| 1788128808 | 36.11° C | 32% | 885.9 hPa | 0 mm | - | - | - |
| 1788127908 | 35.56° C | 33% | 886.2 hPa | 0 mm | - | - | - |
| 1788127608 | 35° C | 35% | 886.3 hPa | 0 mm | - | - | - |
| 1788127308 | 35° C | 34% | 886.4 hPa | 0 mm | - | - | - |
| 1788127008 | 35° C | 35% | 886.5 hPa | 0 mm | - | - | - |
| 1788126708 | 35° C | 36% | 886.6 hPa | 0 mm | - | - | - |
| 1788124608 | 34.44° C | 38% | 887.2 hPa | 0 mm | - | - | - |
| 1788113993 | 30.56° C | 47% | 889.7 hPa | 0 mm | - | - | - |
* Rain latest hour (hover to see other rain measurements)
** Current wind speed in m/s (hover to see current wind gust speed)